sensor_id;sensor_type;location;lat;lon;timestamp;pressure;altitude;pressure_sealevel;temperature;humidity
74474;BME280;62922;-6.168;106.796;2023-07-13T00:02:25;101126.44;;;31.13;59.08
74474;BME280;62922;-6.168;106.796;2023-07-13T00:04:52;101125.28;;;31.14;58.98
74474;BME280;62922;-6.168;106.796;2023-07-13T00:07:18;101115.00;;;31.09;58.91
74474;BME280;62922;-6.168;106.796;2023-07-13T00:09:48;101128.94;;;31.14;59.00
74474;BME280;62922;-6.168;106.796;2023-07-13T00:12:35;101135.75;;;31.13;58.97
74474;BME280;62922;-6.168;106.796;2023-07-13T00:15:06;101115.78;;;31.01;59.26
74474;BME280;62922;-6.168;106.796;2023-07-13T00:17:36;101132.94;;;31.13;59.00
74474;BME280;62922;-6.168;106.796;2023-07-13T00:20:04;101138.88;;;31.12;59.12
74474;BME280;62922;-6.168;106.796;2023-07-13T00:22:31;101141.50;;;31.08;59.11
74474;BME280;62922;-6.168;106.796;2023-07-13T00:24:57;101149.00;;;31.13;59.18
74474;BME280;62922;-6.168;106.796;2023-07-13T00:27:24;101146.81;;;31.10;58.75
74474;BME280;62922;-6.168;106.796;2023-07-13T00:29:52;101141.19;;;31.10;59.19
74474;BME280;62922;-6.168;106.796;2023-07-13T00:32:18;101154.31;;;31.14;59.17
74474;BME280;62922;-6.168;106.796;2023-07-13T00:34:45;101163.63;;;31.15;58.99
74474;BME280;62922;-6.168;106.796;2023-07-13T00:37:11;101158.09;;;31.10;59.04
74474;BME280;62922;-6.168;106.796;2023-07-13T00:39:38;101142.63;;;30.99;59.28
74474;BME280;62922;-6.168;106.796;2023-07-13T00:42:05;101162.94;;;31.09;59.19
74474;BME280;62922;-6.168;106.796;2023-07-13T00:44:31;101170.72;;;31.12;59.09
74474;BME280;62922;-6.168;106.796;2023-07-13T00:46:58;101177.72;;;31.15;58.75
74474;BME280;62922;-6.168;106.796;2023-07-13T00:49:26;101164.06;;;31.08;58.94
74474;BME280;62922;-6.168;106.796;2023-07-13T00:52:00;101180.53;;;31.15;59.01
74474;BME280;62922;-6.168;106.796;2023-07-13T00:54:32;101177.53;;;31.11;59.45
74474;BME280;62922;-6.168;106.796;2023-07-13T00:57:06;101184.16;;;31.15;59.51
74474;BME280;62922;-6.168;106.796;2023-07-13T00:59:35;101170.72;;;31.12;59.44
74474;BME280;62922;-6.168;106.796;2023-07-13T01:02:03;101183.34;;;31.15;58.98
74474;BME280;62922;-6.168;106.796;2023-07-13T01:04:29;101138.31;;;30.93;59.19
74474;BME280;62922;-6.168;106.796;2023-07-13T01:06:57;101185.31;;;31.14;59.27
74474;BME280;62922;-6.168;106.796;2023-07-13T01:09:27;101182.19;;;31.16;59.21
74474;BME280;62922;-6.168;106.796;2023-07-13T01:11:53;101178.50;;;31.15;59.31
74474;BME280;62922;-6.168;106.796;2023-07-13T01:14:22;101170.06;;;31.15;59.62
74474;BME280;62922;-6.168;106.796;2023-07-13T01:16:49;101151.59;;;31.01;59.26
74474;BME280;62922;-6.168;106.796;2023-07-13T01:21:43;101108.91;;;30.77;59.28
74474;BME280;62922;-6.168;106.796;2023-07-13T01:24:10;101146.97;;;31.05;59.48
74474;BME280;62922;-6.168;106.796;2023-07-13T01:26:36;101107.72;;;30.78;59.38
74474;BME280;62922;-6.168;106.796;2023-07-13T01:29:02;101161.59;;;31.15;58.62
74474;BME280;62922;-6.168;106.796;2023-07-13T01:31:29;101136.19;;;30.98;58.93
74474;BME280;62922;-6.168;106.796;2023-07-13T01:33:58;101161.94;;;31.14;59.37
74474;BME280;62922;-6.168;106.796;2023-07-13T01:36:24;101168.91;;;31.16;59.47
74474;BME280;62922;-6.168;106.796;2023-07-13T01:38:51;101164.13;;;31.17;58.92
74474;BME280;62922;-6.168;106.796;2023-07-13T01:41:17;101161.31;;;31.17;59.04
74474;BME280;62922;-6.168;106.796;2023-07-13T01:43:44;101159.78;;;31.19;59.00
74474;BME280;62922;-6.168;106.796;2023-07-13T01:46:10;101158.31;;;31.13;58.89
74474;BME280;62922;-6.168;106.796;2023-07-13T01:48:36;101169.09;;;31.20;58.95
74474;BME280;62922;-6.168;106.796;2023-07-13T01:51:03;101130.88;;;30.97;59.16
74474;BME280;62922;-6.168;106.796;2023-07-13T01:53:29;101170.75;;;31.21;59.44
74474;BME280;62922;-6.168;106.796;2023-07-13T01:55:55;101162.28;;;31.21;59.15
74474;BME280;62922;-6.168;106.796;2023-07-13T01:58:22;101146.19;;;31.13;58.81
74474;BME280;62922;-6.168;106.796;2023-07-13T02:00:49;101147.88;;;31.22;58.89
74474;BME280;62922;-6.168;106.796;2023-07-13T02:03:15;101147.03;;;31.22;58.61
74474;BME280;62922;-6.168;106.796;2023-07-13T02:05:44;101149.34;;;31.20;58.55
74474;BME280;62922;-6.168;106.796;2023-07-13T02:08:11;101154.66;;;31.21;59.27
74474;BME280;62922;-6.168;106.796;2023-07-13T02:10:37;101130.28;;;31.17;59.09
74474;BME280;62922;-6.168;106.796;2023-07-13T02:13:07;101090.09;;;30.94;59.07
74474;BME280;62922;-6.168;106.796;2023-07-13T02:15:34;101109.69;;;31.08;59.24
74474;BME280;62922;-6.168;106.796;2023-07-13T02:18:00;101097.53;;;30.99;58.99
74474;BME280;62922;-6.168;106.796;2023-07-13T02:20:26;101104.19;;;31.03;58.96
74474;BME280;62922;-6.168;106.796;2023-07-13T02:22:53;101100.22;;;31.04;59.16
74474;BME280;62922;-6.168;106.796;2023-07-13T02:25:19;101131.44;;;31.24;59.38
74474;BME280;62922;-6.168;106.796;2023-07-13T02:27:46;101115.34;;;31.16;59.25
74474;BME280;62922;-6.168;106.796;2023-07-13T02:30:15;101125.16;;;31.27;59.27
74474;BME280;62922;-6.168;106.796;2023-07-13T02:32:41;101132.13;;;31.30;58.99
74474;BME280;62922;-6.168;106.796;2023-07-13T02:35:09;101130.97;;;31.31;58.87
74474;BME280;62922;-6.168;106.796;2023-07-13T02:37:36;101118.84;;;31.30;59.08
74474;BME280;62922;-6.168;106.796;2023-07-13T02:40:05;101121.03;;;31.33;58.91
74474;BME280;62922;-6.168;106.796;2023-07-13T02:42:34;101123.22;;;31.36;58.50
74474;BME280;62922;-6.168;106.796;2023-07-13T02:45:01;101076.03;;;31.11;58.71
74474;BME280;62922;-6.168;106.796;2023-07-13T02:47:27;101048.94;;;30.93;59.13
74474;BME280;62922;-6.168;106.796;2023-07-13T02:49:53;101073.41;;;31.15;58.79
74474;BME280;62922;-6.168;106.796;2023-07-13T02:52:20;101095.63;;;31.25;58.66
74474;BME280;62922;-6.168;106.796;2023-07-13T02:54:46;101116.91;;;31.39;58.82
74474;BME280;62922;-6.168;106.796;2023-07-13T02:57:13;101122.22;;;31.41;58.42
74474;BME280;62922;-6.168;106.796;2023-07-13T02:59:39;101100.47;;;31.33;58.90
74474;BME280;62922;-6.168;106.796;2023-07-13T03:02:05;101110.63;;;31.42;58.79
74474;BME280;62922;-6.168;106.796;2023-07-13T03:04:32;101083.03;;;31.31;58.76
74474;BME280;62922;-6.168;106.796;2023-07-13T03:06:58;101109.97;;;31.45;58.89
74474;BME280;62922;-6.168;106.796;2023-07-13T03:09:25;101091.19;;;31.41;58.26
74474;BME280;62922;-6.168;106.796;2023-07-13T03:11:53;101092.03;;;31.41;58.34
74474;BME280;62922;-6.168;106.796;2023-07-13T03:14:23;101094.69;;;31.46;58.59
74474;BME280;62922;-6.168;106.796;2023-07-13T03:16:49;101080.75;;;31.41;58.01
74474;BME280;62922;-6.168;106.796;2023-07-13T03:19:17;101097.22;;;31.48;58.30
74474;BME280;62922;-6.168;106.796;2023-07-13T03:21:44;101093.38;;;31.52;58.22
74474;BME280;62922;-6.168;106.796;2023-07-13T03:24:11;101043.91;;;31.29;58.63
74474;BME280;62922;-6.168;106.796;2023-07-13T03:26:39;101075.31;;;31.53;58.12
74474;BME280;62922;-6.168;106.796;2023-07-13T03:29:05;101073.81;;;31.56;58.42
74474;BME280;62922;-6.168;106.796;2023-07-13T03:31:34;101065.34;;;31.56;57.68
74474;BME280;62922;-6.168;106.796;2023-07-13T03:34:01;101058.03;;;31.55;57.73
74474;BME280;62922;-6.168;106.796;2023-07-13T03:36:30;101053.41;;;31.59;57.68
74474;BME280;62922;-6.168;106.796;2023-07-13T03:38:58;101058.38;;;31.62;58.05
74474;BME280;62922;-6.168;106.796;2023-07-13T03:41:25;101042.78;;;31.56;58.18
74474;BME280;62922;-6.168;106.796;2023-07-13T03:43:52;101003.78;;;31.41;58.06
74474;BME280;62922;-6.168;106.796;2023-07-13T03:46:19;101035.97;;;31.66;57.47
74474;BME280;62922;-6.168;106.796;2023-07-13T03:48:47;101029.66;;;31.60;57.77
74474;BME280;62922;-6.168;106.796;2023-07-13T03:51:15;100961.47;;;31.24;57.11
74474;BME280;62922;-6.168;106.796;2023-07-13T03:53:43;101031.97;;;31.67;57.41
74474;BME280;62922;-6.168;106.796;2023-07-13T03:56:11;100988.69;;;31.45;57.45
74474;BME280;62922;-6.168;106.796;2023-07-13T03:58:39;101022.03;;;31.69;57.25
74474;BME280;62922;-6.168;106.796;2023-07-13T04:01:08;100990.19;;;31.51;57.48
74474;BME280;62922;-6.168;106.796;2023-07-13T04:03:35;101014.56;;;31.73;57.38
74474;BME280;62922;-6.168;106.796;2023-07-13T04:06:04;100989.66;;;31.58;57.04
74474;BME280;62922;-6.168;106.796;2023-07-13T04:08:34;100940.91;;;31.40;57.29
74474;BME280;62922;-6.168;106.796;2023-07-13T04:11:01;100952.19;;;31.49;57.27
74474;BME280;62922;-6.168;106.796;2023-07-13T04:13:28;100988.31;;;31.73;57.37
74474;BME280;62922;-6.168;106.796;2023-07-13T04:15:54;101001.25;;;31.82;57.15
74474;BME280;62922;-6.168;106.796;2023-07-13T04:18:23;100996.44;;;31.83;56.92
74474;BME280;62922;-6.168;106.796;2023-07-13T04:20:50;100984.66;;;31.81;57.08
74474;BME280;62922;-6.168;106.796;2023-07-13T04:23:17;100985.81;;;31.80;56.88
74474;BME280;62922;-6.168;106.796;2023-07-13T04:25:45;100971.19;;;31.78;56.31
74474;BME280;62922;-6.168;106.796;2023-07-13T04:28:12;100983.31;;;31.87;56.21
74474;BME280;62922;-6.168;106.796;2023-07-13T04:30:38;100882.00;;;31.30;56.89
74474;BME280;62922;-6.168;106.796;2023-07-13T04:33:05;100981.50;;;31.91;56.78
74474;BME280;62922;-6.168;106.796;2023-07-13T04:35:31;100958.94;;;31.82;56.55
74474;BME280;62922;-6.168;106.796;2023-07-13T04:37:58;100971.69;;;31.88;56.57
74474;BME280;62922;-6.168;106.796;2023-07-13T04:40:25;100978.53;;;31.96;56.07
74474;BME280;62922;-6.168;106.796;2023-07-13T04:42:52;100968.88;;;31.88;56.58
74474;BME280;62922;-6.168;106.796;2023-07-13T04:45:19;100919.44;;;31.65;56.57
74474;BME280;62922;-6.168;106.796;2023-07-13T04:47:45;100924.09;;;31.70;56.66
74474;BME280;62922;-6.168;106.796;2023-07-13T04:50:13;100949.66;;;31.90;56.06
74474;BME280;62922;-6.168;106.796;2023-07-13T04:52:46;100945.47;;;31.96;55.97
74474;BME280;62922;-6.168;106.796;2023-07-13T04:55:12;100946.78;;;31.99;55.93
74474;BME280;62922;-6.168;106.796;2023-07-13T04:57:41;100901.34;;;31.75;55.38
74474;BME280;62922;-6.168;106.796;2023-07-13T05:00:08;100889.72;;;31.76;55.71
74474;BME280;62922;-6.168;106.796;2023-07-13T05:02:37;100890.22;;;31.78;55.63
74474;BME280;62922;-6.168;106.796;2023-07-13T05:05:04;100923.66;;;32.05;55.67
74474;BME280;62922;-6.168;106.796;2023-07-13T05:07:31;100917.69;;;32.07;55.75
74474;BME280;62922;-6.168;106.796;2023-07-13T05:10:00;100917.38;;;32.08;55.05
74474;BME280;62922;-6.168;106.796;2023-07-13T05:12:27;100923.50;;;32.10;55.24
74474;BME280;62922;-6.168;106.796;2023-07-13T05:14:53;100906.56;;;32.10;55.56
74474;BME280;62922;-6.168;106.796;2023-07-13T05:17:20;100904.41;;;32.07;55.37
74474;BME280;62922;-6.168;106.796;2023-07-13T05:19:46;100879.88;;;31.99;55.72
74474;BME280;62922;-6.168;106.796;2023-07-13T05:22:13;100902.91;;;32.10;55.38
74474;BME280;62922;-6.168;106.796;2023-07-13T05:24:39;100914.34;;;32.13;55.97
74474;BME280;62922;-6.168;106.796;2023-07-13T05:27:06;100884.16;;;32.05;55.21
74474;BME280;62922;-6.168;106.796;2023-07-13T05:29:32;100888.66;;;32.06;55.89
74474;BME280;62922;-6.168;106.796;2023-07-13T05:31:58;100902.72;;;32.15;55.19
74474;BME280;62922;-6.168;106.796;2023-07-13T05:34:25;100859.13;;;31.95;55.82
74474;BME280;62922;-6.168;106.796;2023-07-13T05:36:52;100879.13;;;32.11;55.49
74474;BME280;62922;-6.168;106.796;2023-07-13T05:39:19;100890.41;;;32.19;55.91
74474;BME280;62922;-6.168;106.796;2023-07-13T05:41:45;100862.84;;;32.16;55.39
74474;BME280;62922;-6.168;106.796;2023-07-13T05:44:11;100813.50;;;31.85;55.67
74474;BME280;62922;-6.168;106.796;2023-07-13T05:46:38;100870.09;;;32.26;55.24
74474;BME280;62922;-6.168;106.796;2023-07-13T05:49:04;100867.75;;;32.28;56.04
74474;BME280;62922;-6.168;106.796;2023-07-13T05:51:33;100857.97;;;32.25;55.46
74474;BME280;62922;-6.168;106.796;2023-07-13T05:54:00;100862.47;;;32.26;55.65
74474;BME280;62922;-6.168;106.796;2023-07-13T05:56:26;100848.53;;;32.21;55.26
74474;BME280;62922;-6.168;106.796;2023-07-13T05:58:53;100849.97;;;32.27;55.55
74474;BME280;62922;-6.168;106.796;2023-07-13T06:01:20;100818.06;;;32.06;56.03
74474;BME280;62922;-6.168;106.796;2023-07-13T06:03:48;100852.59;;;32.32;55.29
74474;BME280;62922;-6.168;106.796;2023-07-13T06:06:15;100862.88;;;32.37;56.27
74474;BME280;62922;-6.168;106.796;2023-07-13T06:08:42;100842.34;;;32.28;55.87
74474;BME280;62922;-6.168;106.796;2023-07-13T06:11:18;100861.69;;;32.38;56.04
74474;BME280;62922;-6.168;106.796;2023-07-13T06:13:45;100842.19;;;32.24;55.68
74474;BME280;62922;-6.168;106.796;2023-07-13T06:16:12;100862.03;;;32.36;55.38
74474;BME280;62922;-6.168;106.796;2023-07-13T06:18:39;100822.97;;;32.18;55.18
74474;BME280;62922;-6.168;106.796;2023-07-13T06:21:08;100852.38;;;32.46;57.06
74474;BME280;62922;-6.168;106.796;2023-07-13T06:23:35;100850.19;;;32.51;57.61
74474;BME280;62922;-6.168;106.796;2023-07-13T06:26:03;100808.81;;;32.26;57.69
74474;BME280;62922;-6.168;106.796;2023-07-13T06:28:35;100824.03;;;32.34;57.94
74474;BME280;62922;-6.168;106.796;2023-07-13T06:31:04;100839.59;;;32.48;57.48
74474;BME280;62922;-6.168;106.796;2023-07-13T06:33:30;100800.81;;;32.28;57.20
74474;BME280;62922;-6.168;106.796;2023-07-13T06:35:57;100835.56;;;32.49;56.81
74474;BME280;62922;-6.168;106.796;2023-07-13T06:38:23;100825.81;;;32.47;57.24
74474;BME280;62922;-6.168;106.796;2023-07-13T06:40:49;100846.19;;;32.52;56.75
74474;BME280;62922;-6.168;106.796;2023-07-13T06:43:16;100785.25;;;32.22;56.49
74474;BME280;62922;-6.168;106.796;2023-07-13T06:45:45;100810.72;;;32.43;56.81
74474;BME280;62922;-6.168;106.796;2023-07-13T06:48:14;100815.31;;;32.47;56.15
74474;BME280;62922;-6.168;106.796;2023-07-13T06:50:42;100839.72;;;32.52;55.69
74474;BME280;62922;-6.168;106.796;2023-07-13T06:53:09;100826.75;;;32.51;55.76
74474;BME280;62922;-6.168;106.796;2023-07-13T06:55:36;100833.94;;;32.48;55.30
74474;BME280;62922;-6.168;106.796;2023-07-13T06:58:02;100818.50;;;32.46;55.26
74474;BME280;62922;-6.168;106.796;2023-07-13T07:00:29;100799.28;;;32.31;55.26
74474;BME280;62922;-6.168;106.796;2023-07-13T07:02:55;100786.75;;;32.20;55.52
74474;BME280;62922;-6.168;106.796;2023-07-13T07:05:22;100826.63;;;32.47;55.27
74474;BME280;62922;-6.168;106.796;2023-07-13T07:07:53;100827.31;;;32.44;55.23
74474;BME280;62922;-6.168;106.796;2023-07-13T07:10:21;100822.97;;;32.47;55.44
74474;BME280;62922;-6.168;106.796;2023-07-13T07:12:47;100818.63;;;32.49;54.69
74474;BME280;62922;-6.168;106.796;2023-07-13T07:15:14;100781.84;;;32.29;53.98
74474;BME280;62922;-6.168;106.796;2023-07-13T07:17:40;100781.22;;;32.23;54.46
74474;BME280;62922;-6.168;106.796;2023-07-13T07:20:07;100824.13;;;32.46;53.83
74474;BME280;62922;-6.168;106.796;2023-07-13T07:22:34;100820.44;;;32.54;53.79
74474;BME280;62922;-6.168;106.796;2023-07-13T07:25:00;100829.84;;;32.58;54.06
74474;BME280;62922;-6.168;106.796;2023-07-13T07:27:27;100830.34;;;32.60;54.23
74474;BME280;62922;-6.168;106.796;2023-07-13T07:29:53;100815.28;;;32.56;53.65
74474;BME280;62922;-6.168;106.796;2023-07-13T07:32:20;100786.63;;;32.37;53.76
74474;BME280;62922;-6.168;106.796;2023-07-13T07:34:46;100801.47;;;32.54;53.52
74474;BME280;62922;-6.168;106.796;2023-07-13T07:37:13;100775.31;;;32.37;53.57
74474;BME280;62922;-6.168;106.796;2023-07-13T07:39:40;100798.16;;;32.52;53.71
74474;BME280;62922;-6.168;106.796;2023-07-13T07:42:07;100801.59;;;32.58;53.83
74474;BME280;62922;-6.168;106.796;2023-07-13T07:44:34;100763.84;;;32.42;53.83
74474;BME280;62922;-6.168;106.796;2023-07-13T07:47:01;100796.78;;;32.58;53.35
74474;BME280;62922;-6.168;106.796;2023-07-13T07:49:27;100769.81;;;32.40;53.26
74474;BME280;62922;-6.168;106.796;2023-07-13T07:51:54;100760.72;;;32.35;53.53
74474;BME280;62922;-6.168;106.796;2023-07-13T07:54:20;100772.28;;;32.50;53.83
74474;BME280;62922;-6.168;106.796;2023-07-13T07:56:46;100781.56;;;32.51;53.84
74474;BME280;62922;-6.168;106.796;2023-07-13T07:59:13;100809.19;;;32.66;53.73
74474;BME280;62922;-6.168;106.796;2023-07-13T08:01:39;100765.53;;;32.43;53.79
74474;BME280;62922;-6.168;106.796;2023-07-13T08:04:09;100806.38;;;32.66;54.01
74474;BME280;62922;-6.168;106.796;2023-07-13T08:06:35;100754.84;;;32.40;53.97
74474;BME280;62922;-6.168;106.796;2023-07-13T08:09:02;100745.59;;;32.39;53.96
74474;BME280;62922;-6.168;106.796;2023-07-13T08:11:30;100793.28;;;32.62;53.53
74474;BME280;62922;-6.168;106.796;2023-07-13T08:13:56;100801.41;;;32.63;53.39
74474;BME280;62922;-6.168;106.796;2023-07-13T08:16:23;100792.09;;;32.63;53.72
74474;BME280;62922;-6.168;106.796;2023-07-13T08:18:49;100795.41;;;32.65;53.81
74474;BME280;62922;-6.168;106.796;2023-07-13T08:21:16;100755.38;;;32.42;53.69
74474;BME280;62922;-6.168;106.796;2023-07-13T08:23:45;100797.06;;;32.66;54.20
74474;BME280;62922;-6.168;106.796;2023-07-13T08:26:12;100761.84;;;32.42;53.55
74474;BME280;62922;-6.168;106.796;2023-07-13T08:28:38;100797.88;;;32.66;53.46
74474;BME280;62922;-6.168;106.796;2023-07-13T08:31:06;100728.56;;;32.27;54.30
74474;BME280;62922;-6.168;106.796;2023-07-13T08:33:35;100791.88;;;32.68;54.31
74474;BME280;62922;-6.168;106.796;2023-07-13T08:36:04;100765.31;;;32.48;53.90
74474;BME280;62922;-6.168;106.796;2023-07-13T08:38:31;100794.94;;;32.63;53.76
74474;BME280;62922;-6.168;106.796;2023-07-13T08:40:58;100790.91;;;32.64;54.18
74474;BME280;62922;-6.168;106.796;2023-07-13T08:43:28;100806.38;;;32.66;53.53
74474;BME280;62922;-6.168;106.796;2023-07-13T08:45:58;100801.53;;;32.67;54.07
74474;BME280;62922;-6.168;106.796;2023-07-13T08:53:38;100775.47;;;32.40;54.58
74474;BME280;62922;-6.168;106.796;2023-07-13T08:56:11;100811.03;;;32.62;53.94
74474;BME280;62922;-6.168;106.796;2023-07-13T08:58:44;100780.28;;;32.40;54.30
74474;BME280;62922;-6.168;106.796;2023-07-13T09:03:53;100810.69;;;32.64;53.91
74474;BME280;62922;-6.168;106.796;2023-07-13T09:06:35;100796.16;;;32.53;54.61
74474;BME280;62922;-6.168;106.796;2023-07-13T09:09:31;100822.47;;;32.66;53.94
74474;BME280;62922;-6.168;106.796;2023-07-13T09:12:27;100817.03;;;32.61;54.21
74474;BME280;62922;-6.168;106.796;2023-07-13T09:14:58;100830.47;;;32.64;54.87
74474;BME280;62922;-6.168;106.796;2023-07-13T09:17:31;100815.28;;;32.56;54.52
74474;BME280;62922;-6.168;106.796;2023-07-13T09:22:34;100818.72;;;32.62;54.23
74474;BME280;62922;-6.168;106.796;2023-07-13T09:27:40;100813.72;;;32.58;54.75
74474;BME280;62922;-6.168;106.796;2023-07-13T09:32:41;100831.31;;;32.64;54.22
74474;BME280;62922;-6.168;106.796;2023-07-13T09:35:12;100836.47;;;32.62;54.66
74474;BME280;62922;-6.168;106.796;2023-07-13T09:37:39;100833.38;;;32.55;54.19
74474;BME280;62922;-6.168;106.796;2023-07-13T09:40:17;100838.50;;;32.62;54.38
74474;BME280;62922;-6.168;106.796;2023-07-13T09:42:50;100842.34;;;32.57;54.78
74474;BME280;62922;-6.168;106.796;2023-07-13T09:45:28;100850.13;;;32.60;54.36
74474;BME280;62922;-6.168;106.796;2023-07-13T09:48:03;100809.09;;;32.33;54.70
74474;BME280;62922;-6.168;106.796;2023-07-13T09:50:30;100802.38;;;32.17;54.88
74474;BME280;62922;-6.168;106.796;2023-07-13T09:52:57;100861.91;;;32.62;55.11
74474;BME280;62922;-6.168;106.796;2023-07-13T09:57:53;100871.44;;;32.58;55.21
74474;BME280;62922;-6.168;106.796;2023-07-13T10:00:23;100891.69;;;32.60;55.10
74474;BME280;62922;-6.168;106.796;2023-07-13T10:05:47;100892.50;;;32.60;55.61
74474;BME280;62922;-6.168;106.796;2023-07-13T10:08:22;100889.19;;;32.58;54.92
74474;BME280;62922;-6.168;106.796;2023-07-13T10:11:01;100891.56;;;32.56;54.79
74474;BME280;62922;-6.168;106.796;2023-07-13T10:13:37;100891.72;;;32.51;55.14
74474;BME280;62922;-6.168;106.796;2023-07-13T10:16:04;100892.22;;;32.53;55.62
74474;BME280;62922;-6.168;106.796;2023-07-13T10:18:39;100899.06;;;32.52;55.02
74474;BME280;62922;-6.168;106.796;2023-07-13T10:21:15;100896.22;;;32.52;55.28
74474;BME280;62922;-6.168;106.796;2023-07-13T10:23:42;100910.50;;;32.55;55.12
74474;BME280;62922;-6.168;106.796;2023-07-13T10:26:19;100900.06;;;32.47;54.84
74474;BME280;62922;-6.168;106.796;2023-07-13T10:28:52;100907.88;;;32.50;54.95
74474;BME280;62922;-6.168;106.796;2023-07-13T10:31:19;100877.56;;;32.30;54.40
74474;BME280;62922;-6.168;106.796;2023-07-13T10:33:47;100918.81;;;32.52;55.27
74474;BME280;62922;-6.168;106.796;2023-07-13T10:39:03;100871.06;;;32.30;55.19
74474;BME280;62922;-6.168;106.796;2023-07-13T10:41:39;100919.63;;;32.52;54.67
74474;BME280;62922;-6.168;106.796;2023-07-13T10:44:25;100854.84;;;32.18;54.44
74474;BME280;62922;-6.168;106.796;2023-07-13T10:46:57;100936.59;;;32.52;54.82
74474;BME280;62922;-6.168;106.796;2023-07-13T10:49:26;100919.34;;;32.45;54.77
74474;BME280;62922;-6.168;106.796;2023-07-13T10:51:53;100917.72;;;32.44;54.98
74474;BME280;62922;-6.168;106.796;2023-07-13T10:54:22;100894.69;;;32.25;54.94
74474;BME280;62922;-6.168;106.796;2023-07-13T10:57:06;100928.44;;;32.51;54.70
74474;BME280;62922;-6.168;106.796;2023-07-13T10:59:34;100924.81;;;32.50;55.37
74474;BME280;62922;-6.168;106.796;2023-07-13T11:02:10;100934.81;;;32.48;55.40
74474;BME280;62922;-6.168;106.796;2023-07-13T11:04:48;100899.50;;;32.25;54.98
74474;BME280;62922;-6.168;106.796;2023-07-13T11:07:29;100940.44;;;32.48;55.23
74474;BME280;62922;-6.168;106.796;2023-07-13T11:09:59;100926.00;;;32.41;55.57
74474;BME280;62922;-6.168;106.796;2023-07-13T11:12:28;100932.81;;;32.40;55.71
74474;BME280;62922;-6.168;106.796;2023-07-13T11:15:13;100941.94;;;32.45;55.81
74474;BME280;62922;-6.168;106.796;2023-07-13T11:17:50;100913.50;;;32.21;56.17
74474;BME280;62922;-6.168;106.796;2023-07-13T11:25:34;100959.91;;;32.41;57.18
74474;BME280;62922;-6.168;106.796;2023-07-13T11:28:07;100961.22;;;32.43;56.85
74474;BME280;62922;-6.168;106.796;2023-07-13T11:30:45;100966.88;;;32.43;56.63
74474;BME280;62922;-6.168;106.796;2023-07-13T11:35:57;100975.34;;;32.43;56.52
74474;BME280;62922;-6.168;106.796;2023-07-13T11:40:59;100980.34;;;32.38;56.55
74474;BME280;62922;-6.168;106.796;2023-07-13T11:43:29;100984.00;;;32.38;57.09
74474;BME280;62922;-6.168;106.796;2023-07-13T11:45:55;100963.00;;;32.19;57.23
74474;BME280;62922;-6.168;106.796;2023-07-13T11:48:25;100998.66;;;32.32;57.28
74474;BME280;62922;-6.168;106.796;2023-07-13T11:50:56;100996.63;;;32.32;57.82
74474;BME280;62922;-6.168;106.796;2023-07-13T11:53:27;101015.91;;;32.39;57.61
74474;BME280;62922;-6.168;106.796;2023-07-13T11:55:55;101023.53;;;32.38;56.94
74474;BME280;62922;-6.168;106.796;2023-07-13T11:58:24;101024.72;;;32.37;57.37
74474;BME280;62922;-6.168;106.796;2023-07-13T12:00:55;101025.38;;;32.34;57.21
74474;BME280;62922;-6.168;106.796;2023-07-13T12:03:27;101026.53;;;32.42;57.67
74474;BME280;62922;-6.168;106.796;2023-07-13T12:06:05;101039.00;;;32.41;57.29
74474;BME280;62922;-6.168;106.796;2023-07-13T12:08:39;101007.47;;;32.22;57.35
74474;BME280;62922;-6.168;106.796;2023-07-13T12:11:16;101046.97;;;32.39;57.59
74474;BME280;62922;-6.168;106.796;2023-07-13T12:13:44;101050.28;;;32.41;58.03
74474;BME280;62922;-6.168;106.796;2023-07-13T12:16:22;101046.03;;;32.26;57.99
74474;BME280;62922;-6.168;106.796;2023-07-13T12:18:53;101043.69;;;32.20;57.89
74474;BME280;62922;-6.168;106.796;2023-07-13T12:21:24;101071.56;;;32.38;57.88
74474;BME280;62922;-6.168;106.796;2023-07-13T12:23:53;101074.72;;;32.37;57.46
74474;BME280;62922;-6.168;106.796;2023-07-13T12:26:19;101083.19;;;32.37;57.92
74474;BME280;62922;-6.168;106.796;2023-07-13T12:28:52;101083.19;;;32.37;57.96
74474;BME280;62922;-6.168;106.796;2023-07-13T12:31:44;101083.88;;;32.34;57.91
74474;BME280;62922;-6.168;106.796;2023-07-13T12:34:14;101094.84;;;32.35;58.13
74474;BME280;62922;-6.168;106.796;2023-07-13T12:39:18;101098.66;;;32.31;57.87
74474;BME280;62922;-6.168;106.796;2023-07-13T12:41:46;101088.03;;;32.28;57.78
74474;BME280;62922;-6.168;106.796;2023-07-13T12:44:18;101107.97;;;32.31;57.86
74474;BME280;62922;-6.168;106.796;2023-07-13T12:47:03;101108.31;;;32.30;57.68
74474;BME280;62922;-6.168;106.796;2023-07-13T12:49:32;101077.28;;;32.13;57.45
74474;BME280;62922;-6.168;106.796;2023-07-13T12:52:03;101119.41;;;32.35;58.06
74474;BME280;62922;-6.168;106.796;2023-07-13T12:54:30;101127.56;;;32.36;57.82
74474;BME280;62922;-6.168;106.796;2023-07-13T12:56:59;101130.38;;;32.36;57.40
74474;BME280;62922;-6.168;106.796;2023-07-13T12:59:30;101116.78;;;32.30;57.58
74474;BME280;62922;-6.168;106.796;2023-07-13T13:01:59;101125.75;;;32.32;57.41
74474;BME280;62922;-6.168;106.796;2023-07-13T13:04:26;101099.03;;;32.12;57.96
74474;BME280;62922;-6.168;106.796;2023-07-13T13:07:02;101107.50;;;32.12;57.93
74474;BME280;62922;-6.168;106.796;2023-07-13T13:09:29;101143.50;;;32.32;57.40
74474;BME280;62922;-6.168;106.796;2023-07-13T13:11:55;101154.00;;;32.32;57.48
74474;BME280;62922;-6.168;106.796;2023-07-13T13:14:21;101129.09;;;32.17;57.71
74474;BME280;62922;-6.168;106.796;2023-07-13T13:16:49;101162.13;;;32.33;57.25
74474;BME280;62922;-6.168;106.796;2023-07-13T13:19:22;101164.78;;;32.30;57.68